sensor_id;sensor_type;location;lat;lon;timestamp;P1;durP1;ratioP1;P2;durP2;ratioP2
39880;SDS011;25554;44.954;10.068;2023-10-09T00:00:53;14.73;;;7.07;;
39880;SDS011;25554;44.954;10.068;2023-10-09T00:03:42;18.02;;;6.85;;
39880;SDS011;25554;44.954;10.068;2023-10-09T00:06:18;15.10;;;7.38;;
39880;SDS011;25554;44.954;10.068;2023-10-09T00:08:55;16.48;;;7.65;;
39880;SDS011;25554;44.954;10.068;2023-10-09T00:11:22;13.32;;;6.78;;
39880;SDS011;25554;44.954;10.068;2023-10-09T00:13:55;17.33;;;7.85;;
39880;SDS011;25554;44.954;10.068;2023-10-09T00:16:26;15.63;;;7.32;;
39880;SDS011;25554;44.954;10.068;2023-10-09T00:19:00;15.48;;;8.00;;
39880;SDS011;25554;44.954;10.068;2023-10-09T00:21:40;12.35;;;7.65;;
39880;SDS011;25554;44.954;10.068;2023-10-09T00:24:07;17.13;;;8.70;;
39880;SDS011;25554;44.954;10.068;2023-10-09T00:26:47;20.98;;;9.52;;
39880;SDS011;25554;44.954;10.068;2023-10-09T00:29:15;14.13;;;9.18;;
39880;SDS011;25554;44.954;10.068;2023-10-09T00:31:52;17.45;;;8.52;;
39880;SDS011;25554;44.954;10.068;2023-10-09T00:34:29;17.63;;;8.88;;
39880;SDS011;25554;44.954;10.068;2023-10-09T00:37:10;15.52;;;8.30;;
39880;SDS011;25554;44.954;10.068;2023-10-09T00:42:14;17.02;;;7.90;;
39880;SDS011;25554;44.954;10.068;2023-10-09T00:44:53;18.42;;;7.78;;
39880;SDS011;25554;44.954;10.068;2023-10-09T00:47:19;17.27;;;7.68;;
39880;SDS011;25554;44.954;10.068;2023-10-09T00:49:49;13.63;;;6.75;;
39880;SDS011;25554;44.954;10.068;2023-10-09T00:52:47;16.98;;;7.80;;
39880;SDS011;25554;44.954;10.068;2023-10-09T00:55:26;20.60;;;7.13;;
39880;SDS011;25554;44.954;10.068;2023-10-09T00:58:03;13.48;;;7.05;;
39880;SDS011;25554;44.954;10.068;2023-10-09T01:00:41;14.35;;;6.85;;
39880;SDS011;25554;44.954;10.068;2023-10-09T01:03:11;14.15;;;7.32;;
39880;SDS011;25554;44.954;10.068;2023-10-09T01:05:51;13.05;;;5.47;;
39880;SDS011;25554;44.954;10.068;2023-10-09T01:08:35;15.10;;;6.03;;
39880;SDS011;25554;44.954;10.068;2023-10-09T01:11:10;14.90;;;5.75;;
39880;SDS011;25554;44.954;10.068;2023-10-09T01:13:49;14.07;;;5.95;;
39880;SDS011;25554;44.954;10.068;2023-10-09T01:16:17;12.73;;;5.30;;
39880;SDS011;25554;44.954;10.068;2023-10-09T01:18:44;13.80;;;5.88;;
39880;SDS011;25554;44.954;10.068;2023-10-09T01:21:17;14.75;;;5.95;;
39880;SDS011;25554;44.954;10.068;2023-10-09T01:23:50;11.90;;;5.75;;
39880;SDS011;25554;44.954;10.068;2023-10-09T01:26:43;13.23;;;5.28;;
39880;SDS011;25554;44.954;10.068;2023-10-09T01:31:42;11.18;;;4.85;;
39880;SDS011;25554;44.954;10.068;2023-10-09T01:36:57;11.50;;;5.28;;
39880;SDS011;25554;44.954;10.068;2023-10-09T01:39:30;13.48;;;5.90;;
39880;SDS011;25554;44.954;10.068;2023-10-09T01:42:05;17.55;;;6.35;;
39880;SDS011;25554;44.954;10.068;2023-10-09T01:44:33;15.18;;;5.72;;
39880;SDS011;25554;44.954;10.068;2023-10-09T01:47:18;10.27;;;5.10;;
39880;SDS011;25554;44.954;10.068;2023-10-09T01:49:47;15.00;;;5.32;;
39880;SDS011;25554;44.954;10.068;2023-10-09T01:52:18;12.05;;;4.95;;
39880;SDS011;25554;44.954;10.068;2023-10-09T01:54:46;19.45;;;6.13;;
39880;SDS011;25554;44.954;10.068;2023-10-09T01:57:17;19.40;;;5.55;;
39880;SDS011;25554;44.954;10.068;2023-10-09T01:59:50;17.75;;;5.40;;
39880;SDS011;25554;44.954;10.068;2023-10-09T02:02:19;19.58;;;5.60;;
39880;SDS011;25554;44.954;10.068;2023-10-09T02:04:53;14.27;;;4.88;;
39880;SDS011;25554;44.954;10.068;2023-10-09T02:07:20;12.07;;;4.57;;
39880;SDS011;25554;44.954;10.068;2023-10-09T02:09:56;10.23;;;4.70;;
39880;SDS011;25554;44.954;10.068;2023-10-09T02:12:22;11.88;;;4.80;;
39880;SDS011;25554;44.954;10.068;2023-10-09T02:14:50;17.17;;;5.10;;
39880;SDS011;25554;44.954;10.068;2023-10-09T02:17:21;14.07;;;4.72;;
39880;SDS011;25554;44.954;10.068;2023-10-09T02:19:54;12.80;;;4.65;;
39880;SDS011;25554;44.954;10.068;2023-10-09T02:22:20;13.18;;;4.57;;
39880;SDS011;25554;44.954;10.068;2023-10-09T02:24:51;14.48;;;3.92;;
39880;SDS011;25554;44.954;10.068;2023-10-09T02:27:23;11.55;;;4.53;;
39880;SDS011;25554;44.954;10.068;2023-10-09T02:30:09;20.45;;;5.22;;
39880;SDS011;25554;44.954;10.068;2023-10-09T02:32:45;12.68;;;4.40;;
39880;SDS011;25554;44.954;10.068;2023-10-09T02:35:18;15.73;;;5.63;;
39880;SDS011;25554;44.954;10.068;2023-10-09T02:37:54;12.13;;;4.30;;
39880;SDS011;25554;44.954;10.068;2023-10-09T02:40:26;14.38;;;4.60;;
39880;SDS011;25554;44.954;10.068;2023-10-09T02:42:57;12.93;;;5.13;;
39880;SDS011;25554;44.954;10.068;2023-10-09T02:47:50;20.80;;;5.68;;
39880;SDS011;25554;44.954;10.068;2023-10-09T02:50:17;10.80;;;4.65;;
39880;SDS011;25554;44.954;10.068;2023-10-09T02:52:47;12.90;;;5.20;;
39880;SDS011;25554;44.954;10.068;2023-10-09T02:55:26;12.82;;;5.70;;
39880;SDS011;25554;44.954;10.068;2023-10-09T02:57:56;17.55;;;6.35;;
39880;SDS011;25554;44.954;10.068;2023-10-09T03:00:33;16.27;;;6.43;;
39880;SDS011;25554;44.954;10.068;2023-10-09T03:03:02;17.63;;;6.13;;
39880;SDS011;25554;44.954;10.068;2023-10-09T03:05:32;19.23;;;5.97;;
39880;SDS011;25554;44.954;10.068;2023-10-09T03:07:58;13.88;;;5.32;;
39880;SDS011;25554;44.954;10.068;2023-10-09T03:10:25;18.38;;;6.53;;
39880;SDS011;25554;44.954;10.068;2023-10-09T03:12:52;16.77;;;5.72;;
39880;SDS011;25554;44.954;10.068;2023-10-09T03:15:19;17.08;;;5.80;;
39880;SDS011;25554;44.954;10.068;2023-10-09T03:17:46;15.75;;;5.35;;
39880;SDS011;25554;44.954;10.068;2023-10-09T03:20:16;13.48;;;5.72;;
39880;SDS011;25554;44.954;10.068;2023-10-09T03:22:45;20.10;;;5.53;;
39880;SDS011;25554;44.954;10.068;2023-10-09T03:25:14;14.05;;;5.20;;
39880;SDS011;25554;44.954;10.068;2023-10-09T03:27:43;20.83;;;7.03;;
39880;SDS011;25554;44.954;10.068;2023-10-09T03:30:13;21.13;;;7.10;;
39880;SDS011;25554;44.954;10.068;2023-10-09T03:32:45;13.82;;;6.95;;
39880;SDS011;25554;44.954;10.068;2023-10-09T03:35:19;16.20;;;7.07;;
39880;SDS011;25554;44.954;10.068;2023-10-09T03:37:52;16.02;;;7.13;;
39880;SDS011;25554;44.954;10.068;2023-10-09T03:40:23;21.65;;;7.65;;
39880;SDS011;25554;44.954;10.068;2023-10-09T03:42:50;16.27;;;7.43;;
39880;SDS011;25554;44.954;10.068;2023-10-09T03:45:17;19.42;;;8.10;;
39880;SDS011;25554;44.954;10.068;2023-10-09T03:47:53;14.48;;;7.00;;
39880;SDS011;25554;44.954;10.068;2023-10-09T03:50:28;12.32;;;7.25;;
39880;SDS011;25554;44.954;10.068;2023-10-09T03:53:02;20.92;;;7.80;;
39880;SDS011;25554;44.954;10.068;2023-10-09T03:55:36;17.05;;;9.50;;
39880;SDS011;25554;44.954;10.068;2023-10-09T03:58:06;19.70;;;9.10;;
39880;SDS011;25554;44.954;10.068;2023-10-09T04:00:34;15.45;;;8.43;;
39880;SDS011;25554;44.954;10.068;2023-10-09T04:03:10;20.37;;;9.03;;
39880;SDS011;25554;44.954;10.068;2023-10-09T04:05:39;15.38;;;8.25;;
39880;SDS011;25554;44.954;10.068;2023-10-09T04:08:11;22.75;;;8.68;;
39880;SDS011;25554;44.954;10.068;2023-10-09T04:10:47;22.08;;;9.10;;
39880;SDS011;25554;44.954;10.068;2023-10-09T04:13:17;15.40;;;8.02;;
39880;SDS011;25554;44.954;10.068;2023-10-09T04:15:49;16.08;;;8.48;;
39880;SDS011;25554;44.954;10.068;2023-10-09T04:18:19;39.83;;;9.98;;
39880;SDS011;25554;44.954;10.068;2023-10-09T04:20:46;47.17;;;10.43;;
39880;SDS011;25554;44.954;10.068;2023-10-09T04:23:32;18.45;;;9.45;;
39880;SDS011;25554;44.954;10.068;2023-10-09T04:26:19;16.00;;;7.93;;
39880;SDS011;25554;44.954;10.068;2023-10-09T04:28:46;18.80;;;8.63;;
39880;SDS011;25554;44.954;10.068;2023-10-09T04:31:17;17.58;;;7.97;;
39880;SDS011;25554;44.954;10.068;2023-10-09T04:33:47;21.23;;;8.73;;
39880;SDS011;25554;44.954;10.068;2023-10-09T04:36:40;22.90;;;9.10;;
39880;SDS011;25554;44.954;10.068;2023-10-09T04:39:12;18.40;;;9.00;;
39880;SDS011;25554;44.954;10.068;2023-10-09T04:44:08;20.83;;;8.25;;
39880;SDS011;25554;44.954;10.068;2023-10-09T04:47:01;24.95;;;8.45;;
39880;SDS011;25554;44.954;10.068;2023-10-09T04:49:44;22.20;;;8.20;;
39880;SDS011;25554;44.954;10.068;2023-10-09T04:52:16;15.07;;;8.00;;
39880;SDS011;25554;44.954;10.068;2023-10-09T04:54:45;20.13;;;7.63;;
39880;SDS011;25554;44.954;10.068;2023-10-09T04:57:30;24.23;;;8.25;;
39880;SDS011;25554;44.954;10.068;2023-10-09T05:00:07;17.50;;;7.63;;
39880;SDS011;25554;44.954;10.068;2023-10-09T05:02:53;19.42;;;6.97;;
39880;SDS011;25554;44.954;10.068;2023-10-09T05:05:20;24.08;;;7.00;;
39880;SDS011;25554;44.954;10.068;2023-10-09T05:08:06;15.10;;;6.38;;
39880;SDS011;25554;44.954;10.068;2023-10-09T05:10:56;16.38;;;6.75;;
39880;SDS011;25554;44.954;10.068;2023-10-09T05:13:26;18.10;;;6.57;;
39880;SDS011;25554;44.954;10.068;2023-10-09T05:16:22;17.05;;;6.82;;
39880;SDS011;25554;44.954;10.068;2023-10-09T05:18:52;22.35;;;6.55;;
39880;SDS011;25554;44.954;10.068;2023-10-09T05:21:23;13.73;;;6.55;;
39880;SDS011;25554;44.954;10.068;2023-10-09T05:23:59;16.63;;;6.88;;
39880;SDS011;25554;44.954;10.068;2023-10-09T05:26:41;17.85;;;6.55;;
39880;SDS011;25554;44.954;10.068;2023-10-09T05:29:23;14.20;;;6.35;;
39880;SDS011;25554;44.954;10.068;2023-10-09T05:32:03;20.75;;;6.35;;
39880;SDS011;25554;44.954;10.068;2023-10-09T05:34:34;18.17;;;6.32;;
39880;SDS011;25554;44.954;10.068;2023-10-09T05:37:02;14.52;;;5.90;;
39880;SDS011;25554;44.954;10.068;2023-10-09T05:42:27;19.67;;;5.97;;
39880;SDS011;25554;44.954;10.068;2023-10-09T05:45:15;13.68;;;5.07;;
39880;SDS011;25554;44.954;10.068;2023-10-09T05:47:46;17.45;;;6.07;;
39880;SDS011;25554;44.954;10.068;2023-10-09T05:50:25;17.30;;;6.55;;
39880;SDS011;25554;44.954;10.068;2023-10-09T05:52:53;12.38;;;5.38;;
39880;SDS011;25554;44.954;10.068;2023-10-09T05:55:25;11.57;;;6.00;;
39880;SDS011;25554;44.954;10.068;2023-10-09T05:58:11;21.17;;;8.05;;
39880;SDS011;25554;44.954;10.068;2023-10-09T06:00:56;15.23;;;6.28;;
39880;SDS011;25554;44.954;10.068;2023-10-09T06:03:42;17.25;;;6.28;;
39880;SDS011;25554;44.954;10.068;2023-10-09T06:06:14;17.75;;;5.40;;
39880;SDS011;25554;44.954;10.068;2023-10-09T06:09:02;15.00;;;5.63;;
39880;SDS011;25554;44.954;10.068;2023-10-09T06:11:38;12.82;;;6.50;;
39880;SDS011;25554;44.954;10.068;2023-10-09T06:14:05;14.30;;;5.93;;
39880;SDS011;25554;44.954;10.068;2023-10-09T06:16:35;17.00;;;5.43;;
39880;SDS011;25554;44.954;10.068;2023-10-09T06:19:09;19.92;;;6.40;;
39880;SDS011;25554;44.954;10.068;2023-10-09T06:21:49;18.63;;;6.43;;
39880;SDS011;25554;44.954;10.068;2023-10-09T06:24:19;17.58;;;5.95;;
39880;SDS011;25554;44.954;10.068;2023-10-09T06:26:48;20.13;;;6.07;;
39880;SDS011;25554;44.954;10.068;2023-10-09T06:29:27;20.05;;;5.63;;
39880;SDS011;25554;44.954;10.068;2023-10-09T06:32:10;12.50;;;5.15;;
39880;SDS011;25554;44.954;10.068;2023-10-09T06:34:58;24.98;;;6.18;;
39880;SDS011;25554;44.954;10.068;2023-10-09T06:37:44;18.85;;;5.15;;
39880;SDS011;25554;44.954;10.068;2023-10-09T06:40:27;21.45;;;5.88;;
39880;SDS011;25554;44.954;10.068;2023-10-09T06:43:12;19.02;;;5.43;;
39880;SDS011;25554;44.954;10.068;2023-10-09T06:45:45;31.58;;;7.63;;
39880;SDS011;25554;44.954;10.068;2023-10-09T06:48:26;22.30;;;5.80;;
39880;SDS011;25554;44.954;10.068;2023-10-09T06:51:09;25.50;;;6.97;;
39880;SDS011;25554;44.954;10.068;2023-10-09T06:53:51;17.70;;;5.13;;
39880;SDS011;25554;44.954;10.068;2023-10-09T06:59:01;16.27;;;5.20;;
39880;SDS011;25554;44.954;10.068;2023-10-09T07:01:48;13.15;;;4.70;;
39880;SDS011;25554;44.954;10.068;2023-10-09T07:04:33;20.05;;;5.93;;
39880;SDS011;25554;44.954;10.068;2023-10-09T07:07:02;16.02;;;5.45;;
39880;SDS011;25554;44.954;10.068;2023-10-09T07:09:38;13.68;;;5.28;;
39880;SDS011;25554;44.954;10.068;2023-10-09T07:12:23;19.80;;;6.82;;
39880;SDS011;25554;44.954;10.068;2023-10-09T07:14:53;12.73;;;5.10;;
39880;SDS011;25554;44.954;10.068;2023-10-09T07:17:22;14.88;;;4.63;;
39880;SDS011;25554;44.954;10.068;2023-10-09T07:19:52;17.63;;;4.97;;
39880;SDS011;25554;44.954;10.068;2023-10-09T07:22:19;16.02;;;5.50;;
39880;SDS011;25554;44.954;10.068;2023-10-09T07:24:46;19.73;;;5.65;;
39880;SDS011;25554;44.954;10.068;2023-10-09T07:27:28;21.42;;;4.82;;
39880;SDS011;25554;44.954;10.068;2023-10-09T07:30:15;16.98;;;4.43;;
39880;SDS011;25554;44.954;10.068;2023-10-09T07:32:58;16.13;;;4.65;;
39880;SDS011;25554;44.954;10.068;2023-10-09T07:35:40;15.50;;;5.65;;
39880;SDS011;25554;44.954;10.068;2023-10-09T07:40:40;17.67;;;4.70;;
39880;SDS011;25554;44.954;10.068;2023-10-09T07:43:42;20.55;;;5.13;;
39880;SDS011;25554;44.954;10.068;2023-10-09T07:46:09;22.58;;;5.88;;
39880;SDS011;25554;44.954;10.068;2023-10-09T07:49:17;16.60;;;5.55;;
39880;SDS011;25554;44.954;10.068;2023-10-09T07:51:55;20.38;;;5.50;;
39880;SDS011;25554;44.954;10.068;2023-10-09T07:54:24;21.45;;;6.03;;
39880;SDS011;25554;44.954;10.068;2023-10-09T07:57:01;12.93;;;5.45;;
39880;SDS011;25554;44.954;10.068;2023-10-09T07:59:48;23.48;;;6.72;;
39880;SDS011;25554;44.954;10.068;2023-10-09T08:02:25;20.05;;;6.35;;
39880;SDS011;25554;44.954;10.068;2023-10-09T08:04:58;23.23;;;6.03;;
39880;SDS011;25554;44.954;10.068;2023-10-09T08:07:57;29.40;;;6.70;;
39880;SDS011;25554;44.954;10.068;2023-10-09T08:10:44;16.88;;;5.72;;
39880;SDS011;25554;44.954;10.068;2023-10-09T08:13:29;23.48;;;6.93;;
39880;SDS011;25554;44.954;10.068;2023-10-09T08:16:14;20.70;;;6.55;;
39880;SDS011;25554;44.954;10.068;2023-10-09T08:18:47;27.98;;;8.40;;
39880;SDS011;25554;44.954;10.068;2023-10-09T08:21:18;19.05;;;7.38;;
39880;SDS011;25554;44.954;10.068;2023-10-09T08:24:04;24.50;;;7.40;;
39880;SDS011;25554;44.954;10.068;2023-10-09T08:26:48;22.00;;;8.00;;
39880;SDS011;25554;44.954;10.068;2023-10-09T08:29:34;17.65;;;8.30;;
39880;SDS011;25554;44.954;10.068;2023-10-09T08:32:01;20.05;;;7.32;;
39880;SDS011;25554;44.954;10.068;2023-10-09T08:34:43;27.38;;;7.95;;
39880;SDS011;25554;44.954;10.068;2023-10-09T08:37:19;21.13;;;6.32;;
39880;SDS011;25554;44.954;10.068;2023-10-09T08:39:50;18.45;;;7.22;;
39880;SDS011;25554;44.954;10.068;2023-10-09T08:42:17;20.35;;;6.93;;
39880;SDS011;25554;44.954;10.068;2023-10-09T08:44:44;23.95;;;7.28;;
39880;SDS011;25554;44.954;10.068;2023-10-09T08:47:15;21.25;;;6.40;;
39880;SDS011;25554;44.954;10.068;2023-10-09T08:49:41;21.98;;;6.95;;
39880;SDS011;25554;44.954;10.068;2023-10-09T08:52:07;20.38;;;7.10;;
39880;SDS011;25554;44.954;10.068;2023-10-09T08:54:36;24.63;;;6.20;;
39880;SDS011;25554;44.954;10.068;2023-10-09T08:57:02;20.58;;;6.38;;
39880;SDS011;25554;44.954;10.068;2023-10-09T08:59:30;19.17;;;6.20;;
39880;SDS011;25554;44.954;10.068;2023-10-09T09:01:57;35.45;;;6.95;;
39880;SDS011;25554;44.954;10.068;2023-10-09T09:04:38;35.05;;;11.60;;
39880;SDS011;25554;44.954;10.068;2023-10-09T09:07:06;16.23;;;5.90;;
39880;SDS011;25554;44.954;10.068;2023-10-09T09:09:55;22.27;;;6.43;;
39880;SDS011;25554;44.954;10.068;2023-10-09T09:12:23;20.20;;;5.53;;
39880;SDS011;25554;44.954;10.068;2023-10-09T09:14:49;16.35;;;5.63;;
39880;SDS011;25554;44.954;10.068;2023-10-09T09:17:22;18.92;;;5.28;;
39880;SDS011;25554;44.954;10.068;2023-10-09T09:19:49;22.63;;;6.43;;
39880;SDS011;25554;44.954;10.068;2023-10-09T09:24:56;18.48;;;5.60;;
39880;SDS011;25554;44.954;10.068;2023-10-09T09:27:44;15.38;;;5.53;;
39880;SDS011;25554;44.954;10.068;2023-10-09T09:30:26;15.98;;;5.03;;
39880;SDS011;25554;44.954;10.068;2023-10-09T09:36:09;19.25;;;5.70;;
39880;SDS011;25554;44.954;10.068;2023-10-09T09:38:38;14.45;;;5.30;;
39880;SDS011;25554;44.954;10.068;2023-10-09T09:41:08;18.65;;;5.95;;
39880;SDS011;25554;44.954;10.068;2023-10-09T09:43:36;23.65;;;7.07;;
39880;SDS011;25554;44.954;10.068;2023-10-09T09:46:09;19.98;;;5.30;;
39880;SDS011;25554;44.954;10.068;2023-10-09T09:48:38;18.08;;;5.45;;
39880;SDS011;25554;44.954;10.068;2023-10-09T09:51:11;26.65;;;5.97;;
39880;SDS011;25554;44.954;10.068;2023-10-09T09:53:40;18.25;;;4.75;;
39880;SDS011;25554;44.954;10.068;2023-10-09T09:56:07;19.67;;;5.47;;
39880;SDS011;25554;44.954;10.068;2023-10-09T09:58:43;19.23;;;5.75;;
39880;SDS011;25554;44.954;10.068;2023-10-09T10:01:19;16.00;;;4.63;;
39880;SDS011;25554;44.954;10.068;2023-10-09T10:04:01;16.35;;;5.22;;
39880;SDS011;25554;44.954;10.068;2023-10-09T10:06:37;17.95;;;6.07;;
39880;SDS011;25554;44.954;10.068;2023-10-09T10:09:10;26.83;;;5.57;;
39880;SDS011;25554;44.954;10.068;2023-10-09T10:11:43;18.23;;;5.20;;
39880;SDS011;25554;44.954;10.068;2023-10-09T10:14:14;16.38;;;5.07;;
39880;SDS011;25554;44.954;10.068;2023-10-09T10:17:00;23.00;;;5.07;;
39880;SDS011;25554;44.954;10.068;2023-10-09T10:20:14;13.93;;;5.07;;
39880;SDS011;25554;44.954;10.068;2023-10-09T10:22:43;20.90;;;6.38;;
39880;SDS011;25554;44.954;10.068;2023-10-09T10:31:08;19.00;;;5.20;;
39880;SDS011;25554;44.954;10.068;2023-10-09T10:36:20;23.17;;;5.45;;
39880;SDS011;25554;44.954;10.068;2023-10-09T10:39:00;23.15;;;5.05;;
39880;SDS011;25554;44.954;10.068;2023-10-09T10:41:30;17.13;;;4.80;;
39880;SDS011;25554;44.954;10.068;2023-10-09T10:44:02;16.73;;;4.70;;
39880;SDS011;25554;44.954;10.068;2023-10-09T10:46:58;23.40;;;4.95;;
39880;SDS011;25554;44.954;10.068;2023-10-09T10:49:24;17.63;;;5.18;;
39880;SDS011;25554;44.954;10.068;2023-10-09T10:52:02;16.08;;;4.30;;
39880;SDS011;25554;44.954;10.068;2023-10-09T10:54:42;11.95;;;3.97;;
39880;SDS011;25554;44.954;10.068;2023-10-09T10:57:16;17.35;;;4.15;;
39880;SDS011;25554;44.954;10.068;2023-10-09T10:59:56;19.45;;;4.72;;
39880;SDS011;25554;44.954;10.068;2023-10-09T11:02:42;14.05;;;4.18;;
39880;SDS011;25554;44.954;10.068;2023-10-09T11:05:09;18.55;;;4.80;;
39880;SDS011;25554;44.954;10.068;2023-10-09T11:07:57;19.67;;;4.85;;
39880;SDS011;25554;44.954;10.068;2023-10-09T11:10:23;23.42;;;5.28;;
39880;SDS011;25554;44.954;10.068;2023-10-09T11:12:54;14.10;;;5.00;;
39880;SDS011;25554;44.954;10.068;2023-10-09T11:15:40;18.90;;;4.73;;
39880;SDS011;25554;44.954;10.068;2023-10-09T11:18:10;20.17;;;4.60;;
39880;SDS011;25554;44.954;10.068;2023-10-09T11:20:54;15.38;;;4.70;;
39880;SDS011;25554;44.954;10.068;2023-10-09T11:23:42;22.83;;;5.45;;
39880;SDS011;25554;44.954;10.068;2023-10-09T11:26:18;13.73;;;4.67;;
39880;SDS011;25554;44.954;10.068;2023-10-09T11:34:31;19.55;;;5.07;;
39880;SDS011;25554;44.954;10.068;2023-10-09T11:37:01;12.77;;;4.80;;
39880;SDS011;25554;44.954;10.068;2023-10-09T11:39:31;17.80;;;5.55;;
39880;SDS011;25554;44.954;10.068;2023-10-09T11:42:01;14.90;;;4.13;;
39880;SDS011;25554;44.954;10.068;2023-10-09T11:44:42;18.38;;;4.53;;
39880;SDS011;25554;44.954;10.068;2023-10-09T11:47:20;18.75;;;4.88;;
39880;SDS011;25554;44.954;10.068;2023-10-09T11:49:58;18.23;;;5.03;;
39880;SDS011;25554;44.954;10.068;2023-10-09T11:52:28;16.27;;;4.40;;
39880;SDS011;25554;44.954;10.068;2023-10-09T11:55:02;15.05;;;4.15;;
39880;SDS011;25554;44.954;10.068;2023-10-09T11:57:29;12.85;;;4.20;;
39880;SDS011;25554;44.954;10.068;2023-10-09T11:59:59;16.80;;;4.28;;
39880;SDS011;25554;44.954;10.068;2023-10-09T12:02:26;13.27;;;4.30;;
39880;SDS011;25554;44.954;10.068;2023-10-09T12:04:53;13.88;;;4.53;;
39880;SDS011;25554;44.954;10.068;2023-10-09T12:07:23;21.35;;;4.05;;
39880;SDS011;25554;44.954;10.068;2023-10-09T12:09:51;13.18;;;4.45;;
39880;SDS011;25554;44.954;10.068;2023-10-09T12:12:22;17.27;;;4.55;;
39880;SDS011;25554;44.954;10.068;2023-10-09T12:14:52;15.65;;;4.45;;
39880;SDS011;25554;44.954;10.068;2023-10-09T12:17:18;18.52;;;4.63;;
39880;SDS011;25554;44.954;10.068;2023-10-09T12:19:49;16.08;;;4.72;;
39880;SDS011;25554;44.954;10.068;2023-10-09T12:22:16;17.05;;;4.15;;
39880;SDS011;25554;44.954;10.068;2023-10-09T12:24:45;14.98;;;4.65;;
39880;SDS011;25554;44.954;10.068;2023-10-09T12:27:12;16.88;;;5.07;;
39880;SDS011;25554;44.954;10.068;2023-10-09T12:29:39;16.67;;;4.68;;
39880;SDS011;25554;44.954;10.068;2023-10-09T12:32:10;16.55;;;5.03;;
39880;SDS011;25554;44.954;10.068;2023-10-09T12:34:37;16.67;;;4.53;;
39880;SDS011;25554;44.954;10.068;2023-10-09T12:37:05;14.27;;;3.92;;
39880;SDS011;25554;44.954;10.068;2023-10-09T12:39:31;19.05;;;4.15;;
39880;SDS011;25554;44.954;10.068;2023-10-09T12:42:06;18.85;;;4.85;;
39880;SDS011;25554;44.954;10.068;2023-10-09T12:44:32;16.52;;;3.92;;
39880;SDS011;25554;44.954;10.068;2023-10-09T12:47:05;16.23;;;3.92;;
39880;SDS011;25554;44.954;10.068;2023-10-09T12:49:32;22.08;;;4.63;;
39880;SDS011;25554;44.954;10.068;2023-10-09T12:51:58;10.45;;;4.03;;
39880;SDS011;25554;44.954;10.068;2023-10-09T12:54:25;20.77;;;5.13;;
39880;SDS011;25554;44.954;10.068;2023-10-09T12:56:56;17.65;;;4.55;;
39880;SDS011;25554;44.954;10.068;2023-10-09T12:59:24;18.63;;;4.20;;
39880;SDS011;25554;44.954;10.068;2023-10-09T13:01:51;13.75;;;4.32;;
39880;SDS011;25554;44.954;10.068;2023-10-09T13:04:18;19.92;;;4.70;;
39880;SDS011;25554;44.954;10.068;2023-10-09T13:06:48;19.13;;;5.65;;
39880;SDS011;25554;44.954;10.068;2023-10-09T13:09:19;19.67;;;5.32;;
39880;SDS011;25554;44.954;10.068;2023-10-09T13:12:01;14.18;;;4.07;;
39880;SDS011;25554;44.954;10.068;2023-10-09T13:14:28;17.08;;;4.85;;
39880;SDS011;25554;44.954;10.068;2023-10-09T13:16:54;19.20;;;4.53;;
39880;SDS011;25554;44.954;10.068;2023-10-09T13:19:21;16.30;;;3.92;;
39880;SDS011;25554;44.954;10.068;2023-10-09T13:21:49;17.27;;;4.43;;
39880;SDS011;25554;44.954;10.068;2023-10-09T13:24:16;19.75;;;4.43;;
39880;SDS011;25554;44.954;10.068;2023-10-09T13:26:43;14.82;;;4.40;;
39880;SDS011;25554;44.954;10.068;2023-10-09T13:29:12;16.13;;;4.20;;
39880;SDS011;25554;44.954;10.068;2023-10-09T13:31:39;15.40;;;4.85;;
39880;SDS011;25554;44.954;10.068;2023-10-09T13:34:12;16.35;;;4.90;;
39880;SDS011;25554;44.954;10.068;2023-10-09T13:36:41;13.18;;;4.65;;
39880;SDS011;25554;44.954;10.068;2023-10-09T13:39:19;16.75;;;4.15;;
39880;SDS011;25554;44.954;10.068;2023-10-09T13:41:56;16.40;;;4.50;;
39880;SDS011;25554;44.954;10.068;2023-10-09T13:44:33;19.67;;;4.30;;
39880;SDS011;25554;44.954;10.068;2023-10-09T13:47:01;20.60;;;4.50;;
39880;SDS011;25554;44.954;10.068;2023-10-09T13:49:31;17.90;;;4.88;;
39880;SDS011;25554;44.954;10.068;2023-10-09T13:51:58;23.65;;;4.78;;
39880;SDS011;25554;44.954;10.068;2023-10-09T13:54:27;24.17;;;4.80;;
39880;SDS011;25554;44.954;10.068;2023-10-09T13:57:05;15.63;;;4.55;;
39880;SDS011;25554;44.954;10.068;2023-10-09T13:59:34;15.05;;;4.75;;
39880;SDS011;25554;44.954;10.068;2023-10-09T14:02:01;12.55;;;4.45;;
39880;SDS011;25554;44.954;10.068;2023-10-09T14:04:34;23.77;;;5.53;;
39880;SDS011;25554;44.954;10.068;2023-10-09T14:07:01;15.88;;;4.60;;
39880;SDS011;25554;44.954;10.068;2023-10-09T14:09:31;15.02;;;4.43;;
39880;SDS011;25554;44.954;10.068;2023-10-09T14:11:58;20.42;;;5.03;;
39880;SDS011;25554;44.954;10.068;2023-10-09T14:14:35;12.40;;;4.45;;
39880;SDS011;25554;44.954;10.068;2023-10-09T14:17:04;20.55;;;5.07;;
39880;SDS011;25554;44.954;10.068;2023-10-09T14:19:40;17.45;;;5.35;;
39880;SDS011;25554;44.954;10.068;2023-10-09T14:22:12;18.08;;;4.97;;
39880;SDS011;25554;44.954;10.068;2023-10-09T14:24:47;11.98;;;4.03;;
39880;SDS011;25554;44.954;10.068;2023-10-09T14:27:21;15.88;;;4.75;;
39880;SDS011;25554;44.954;10.068;2023-10-09T14:29:52;16.67;;;4.70;;
39880;SDS011;25554;44.954;10.068;2023-10-09T14:32:25;12.32;;;4.85;;
39880;SDS011;25554;44.954;10.068;2023-10-09T14:34:54;17.63;;;5.32;;
39880;SDS011;25554;44.954;10.068;2023-10-09T14:37:27;16.80;;;4.70;;
39880;SDS011;25554;44.954;10.068;2023-10-09T14:39:53;12.60;;;4.45;;
39880;SDS011;25554;44.954;10.068;2023-10-09T14:42:21;15.18;;;4.90;;
39880;SDS011;25554;44.954;10.068;2023-10-09T14:44:50;17.00;;;5.15;;
39880;SDS011;25554;44.954;10.068;2023-10-09T14:47:16;20.55;;;4.95;;
39880;SDS011;25554;44.954;10.068;2023-10-09T14:49:46;16.10;;;5.15;;
39880;SDS011;25554;44.954;10.068;2023-10-09T14:52:14;21.25;;;5.43;;
39880;SDS011;25554;44.954;10.068;2023-10-09T14:54:42;12.02;;;4.80;;
39880;SDS011;25554;44.954;10.068;2023-10-09T14:57:14;16.73;;;5.40;;
39880;SDS011;25554;44.954;10.068;2023-10-09T14:59:41;18.00;;;5.00;;
39880;SDS011;25554;44.954;10.068;2023-10-09T15:02:11;17.63;;;4.78;;
39880;SDS011;25554;44.954;10.068;2023-10-09T15:04:38;13.20;;;5.22;;
39880;SDS011;25554;44.954;10.068;2023-10-09T15:07:05;16.23;;;5.38;;
39880;SDS011;25554;44.954;10.068;2023-10-09T15:09:34;13.48;;;5.38;;
39880;SDS011;25554;44.954;10.068;2023-10-09T15:12:02;18.70;;;5.05;;
39880;SDS011;25554;44.954;10.068;2023-10-09T15:14:32;21.58;;;5.07;;
39880;SDS011;25554;44.954;10.068;2023-10-09T15:16:59;21.58;;;6.03;;
39880;SDS011;25554;44.954;10.068;2023-10-09T15:19:26;23.15;;;6.43;;
39880;SDS011;25554;44.954;10.068;2023-10-09T15:21:56;20.40;;;5.93;;
39880;SDS011;25554;44.954;10.068;2023-10-09T15:24:24;23.67;;;6.00;;
39880;SDS011;25554;44.954;10.068;2023-10-09T15:26:53;18.77;;;5.25;;
39880;SDS011;25554;44.954;10.068;2023-10-09T15:29:23;15.13;;;5.13;;
39880;SDS011;25554;44.954;10.068;2023-10-09T15:31:54;11.02;;;5.20;;
39880;SDS011;25554;44.954;10.068;2023-10-09T15:34:21;17.77;;;5.60;;
39880;SDS011;25554;44.954;10.068;2023-10-09T15:36:48;16.48;;;6.32;;
39880;SDS011;25554;44.954;10.068;2023-10-09T15:39:15;14.57;;;6.13;;